sensor_id;sensor_type;location;lat;lon;timestamp;pressure;altitude;pressure_sealevel;temperature;humidity
64711;BME280;51139;45.626;6.850;2023-11-21T00:00:46;81482.00;;;3.80;100.00
64711;BME280;51139;45.626;6.850;2023-11-21T00:03:12;81474.63;;;3.24;100.00
64711;BME280;51139;45.626;6.850;2023-11-21T00:05:40;81471.50;;;3.88;100.00
64711;BME280;51139;45.626;6.850;2023-11-21T00:08:07;81471.53;;;3.80;100.00
64711;BME280;51139;45.626;6.850;2023-11-21T00:10:32;81466.09;;;3.86;100.00
64711;BME280;51139;45.626;6.850;2023-11-21T00:12:58;81461.19;;;3.20;100.00
64711;BME280;51139;45.626;6.850;2023-11-21T00:15:23;81461.00;;;3.02;100.00
64711;BME280;51139;45.626;6.850;2023-11-21T00:17:48;81456.13;;;2.39;100.00
64711;BME280;51139;45.626;6.850;2023-11-21T00:20:14;81468.59;;;2.69;100.00
64711;BME280;51139;45.626;6.850;2023-11-21T00:22:40;81459.91;;;2.22;100.00
64711;BME280;51139;45.626;6.850;2023-11-21T00:25:06;81460.44;;;2.81;100.00
64711;BME280;51139;45.626;6.850;2023-11-21T00:27:34;81449.72;;;2.55;100.00
64711;BME280;51139;45.626;6.850;2023-11-21T00:30:00;81444.38;;;2.84;100.00
64711;BME280;51139;45.626;6.850;2023-11-21T00:32:25;81448.47;;;3.16;100.00
64711;BME280;51139;45.626;6.850;2023-11-21T00:34:50;81448.78;;;2.97;100.00
64711;BME280;51139;45.626;6.850;2023-11-21T00:37:16;81444.94;;;2.98;100.00
64711;BME280;51139;45.626;6.850;2023-11-21T00:39:41;81450.19;;;3.06;100.00
64711;BME280;51139;45.626;6.850;2023-11-21T00:42:07;81451.03;;;2.33;100.00
64711;BME280;51139;45.626;6.850;2023-11-21T00:44:33;81450.59;;;2.50;100.00
64711;BME280;51139;45.626;6.850;2023-11-21T00:46:59;81450.84;;;2.75;100.00
64711;BME280;51139;45.626;6.850;2023-11-21T00:49:25;81450.59;;;2.50;100.00
64711;BME280;51139;45.626;6.850;2023-11-21T00:51:50;81447.59;;;2.46;100.00
64711;BME280;51139;45.626;6.850;2023-11-21T00:54:15;81446.72;;;2.43;100.00
64711;BME280;51139;45.626;6.850;2023-11-21T00:56:42;81439.56;;;2.36;100.00
64711;BME280;51139;45.626;6.850;2023-11-21T07:53:02;81359.06;;;2.58;100.00
64711;BME280;51139;45.626;6.850;2023-11-21T07:55:30;81358.75;;;2.92;100.00
64711;BME280;51139;45.626;6.850;2023-11-21T07:57:57;81364.19;;;3.02;100.00
64711;BME280;51139;45.626;6.850;2023-11-21T08:00:22;81361.75;;;2.89;100.00
64711;BME280;51139;45.626;6.850;2023-11-21T08:02:49;81364.25;;;2.27;100.00
64711;BME280;51139;45.626;6.850;2023-11-21T08:05:15;81358.28;;;1.29;100.00
64711;BME280;51139;45.626;6.850;2023-11-21T08:07:41;81365.63;;;0.60;100.00
64711;BME280;51139;45.626;6.850;2023-11-21T08:10:06;81355.59;;;0.42;100.00
64711;BME280;51139;45.626;6.850;2023-11-21T08:37:36;81344.97;;;2.53;100.00
64711;BME280;51139;45.626;6.850;2023-11-21T08:40:05;81331.56;;;2.80;100.00
64711;BME280;51139;45.626;6.850;2023-11-21T08:42:34;81333.13;;;3.14;100.00
64711;BME280;51139;45.626;6.850;2023-11-21T08:45:00;81330.28;;;3.59;100.00
64711;BME280;51139;45.626;6.850;2023-11-21T08:47:25;81325.06;;;4.07;100.00
64711;BME280;51139;45.626;6.850;2023-11-21T08:49:51;81321.13;;;6.02;100.00
64711;BME280;51139;45.626;6.850;2023-11-21T08:52:19;81320.97;;;6.62;100.00
64711;BME280;51139;45.626;6.850;2023-11-21T08:54:49;81314.84;;;5.97;100.00
64711;BME280;51139;45.626;6.850;2023-11-21T08:57:21;81312.84;;;6.95;100.00
64711;BME280;51139;45.626;6.850;2023-11-21T08:59:47;81308.56;;;7.37;93.86
64711;BME280;51139;45.626;6.850;2023-11-21T09:02:12;81323.53;;;6.97;98.39
64711;BME280;51139;45.626;6.850;2023-11-21T09:04:37;81324.66;;;6.77;100.00
64711;BME280;51139;45.626;6.850;2023-11-21T09:07:03;81322.53;;;6.20;100.00
64711;BME280;51139;45.626;6.850;2023-11-21T09:09:28;81329.19;;;4.26;100.00
64711;BME280;51139;45.626;6.850;2023-11-21T09:11:54;81333.75;;;3.69;100.00
64711;BME280;51139;45.626;6.850;2023-11-21T09:14:20;81335.19;;;4.11;100.00
64711;BME280;51139;45.626;6.850;2023-11-21T09:16:45;81329.47;;;3.97;100.00
64711;BME280;51139;45.626;6.850;2023-11-21T09:19:12;81323.63;;;4.22;100.00
64711;BME280;51139;45.626;6.850;2023-11-21T09:21:39;81328.53;;;4.10;100.00
64711;BME280;51139;45.626;6.850;2023-11-21T09:24:05;81335.75;;;4.43;100.00
64711;BME280;51139;45.626;6.850;2023-11-21T09:26:30;81331.91;;;4.44;100.00
64711;BME280;51139;45.626;6.850;2023-11-21T09:28:55;81340.25;;;4.17;100.00
64711;BME280;51139;45.626;6.850;2023-11-21T09:31:22;81339.25;;;3.89;100.00
64711;BME280;51139;45.626;6.850;2023-11-21T09:33:49;81339.66;;;3.77;100.00
64711;BME280;51139;45.626;6.850;2023-11-21T09:36:14;81343.00;;;3.70;100.00
64711;BME280;51139;45.626;6.850;2023-11-21T09:38:40;81339.50;;;3.68;100.00
64711;BME280;51139;45.626;6.850;2023-11-21T09:41:12;81342.69;;;3.58;100.00
64711;BME280;51139;45.626;6.850;2023-11-21T09:43:44;81337.78;;;3.55;100.00
64711;BME280;51139;45.626;6.850;2023-11-21T09:46:12;81341.44;;;3.67;100.00
64711;BME280;51139;45.626;6.850;2023-11-21T09:48:47;81339.78;;;3.95;100.00
64711;BME280;51139;45.626;6.850;2023-11-21T09:51:16;81343.66;;;3.78;100.00
64711;BME280;51139;45.626;6.850;2023-11-21T09:53:47;81342.91;;;4.01;100.00
64711;BME280;51139;45.626;6.850;2023-11-21T09:56:15;81335.13;;;4.27;100.00
64711;BME280;51139;45.626;6.850;2023-11-21T09:58:44;81341.31;;;4.47;100.00
64711;BME280;51139;45.626;6.850;2023-11-21T10:01:11;81333.94;;;4.53;100.00
64711;BME280;51139;45.626;6.850;2023-11-21T10:03:39;81332.44;;;4.42;100.00
64711;BME280;51139;45.626;6.850;2023-11-21T10:06:05;81343.03;;;3.55;100.00
64711;BME280;51139;45.626;6.850;2023-11-21T10:08:32;81332.13;;;3.82;100.00
64711;BME280;51139;45.626;6.850;2023-11-21T10:10:57;81342.44;;;3.87;100.00
64711;BME280;51139;45.626;6.850;2023-11-21T10:13:26;81344.66;;;3.99;100.00
64711;BME280;51139;45.626;6.850;2023-11-21T10:15:55;81329.13;;;4.42;100.00
64711;BME280;51139;45.626;6.850;2023-11-21T10:18:24;81329.28;;;3.95;100.00
64711;BME280;51139;45.626;6.850;2023-11-21T10:20:51;81334.81;;;3.58;100.00
64711;BME280;51139;45.626;6.850;2023-11-21T10:23:22;81331.69;;;3.36;100.00
64711;BME280;51139;45.626;6.850;2023-11-21T10:25:47;81321.88;;;4.17;100.00
64711;BME280;51139;45.626;6.850;2023-11-21T10:28:14;81332.34;;;3.76;100.00
64711;BME280;51139;45.626;6.850;2023-11-21T10:30:40;81317.94;;;3.28;100.00
64711;BME280;51139;45.626;6.850;2023-11-21T10:33:07;81321.06;;;3.42;100.00
64711;BME280;51139;45.626;6.850;2023-11-21T10:35:44;81315.63;;;3.48;100.00
64711;BME280;51139;45.626;6.850;2023-11-21T10:38:18;81314.44;;;3.41;100.00
64711;BME280;51139;45.626;6.850;2023-11-21T10:40:46;81319.34;;;3.06;100.00
64711;BME280;51139;45.626;6.850;2023-11-21T10:43:14;81315.66;;;3.32;100.00
64711;BME280;51139;45.626;6.850;2023-11-21T10:45:43;81303.25;;;3.48;100.00
64711;BME280;51139;45.626;6.850;2023-11-21T10:48:15;81308.84;;;3.29;100.00
64711;BME280;51139;45.626;6.850;2023-11-21T10:50:41;81305.66;;;3.62;100.00
64711;BME280;51139;45.626;6.850;2023-11-21T10:53:07;81303.28;;;3.89;100.00
64711;BME280;51139;45.626;6.850;2023-11-21T10:55:33;81306.69;;;3.67;100.00
64711;BME280;51139;45.626;6.850;2023-11-21T10:58:02;81309.84;;;3.57;100.00
64711;BME280;51139;45.626;6.850;2023-11-21T11:00:29;81312.38;;;3.09;100.00
64711;BME280;51139;45.626;6.850;2023-11-21T11:02:55;81311.81;;;3.41;100.00
64711;BME280;51139;45.626;6.850;2023-11-21T11:05:22;81302.84;;;3.60;100.00
64711;BME280;51139;45.626;6.850;2023-11-21T11:07:51;81299.38;;;4.06;100.00
64711;BME280;51139;45.626;6.850;2023-11-21T11:10:25;81291.97;;;3.79;100.00
64711;BME280;51139;45.626;6.850;2023-11-21T11:12:53;81295.16;;;3.62;100.00
64711;BME280;51139;45.626;6.850;2023-11-21T11:15:19;81299.94;;;3.97;100.00
64711;BME280;51139;45.626;6.850;2023-11-21T11:17:46;81296.13;;;4.31;100.00
64711;BME280;51139;45.626;6.850;2023-11-21T11:20:13;81294.19;;;4.31;100.00
64711;BME280;51139;45.626;6.850;2023-11-21T11:28:50;81278.91;;;3.71;100.00
64711;BME280;51139;45.626;6.850;2023-11-21T11:34:20;81281.66;;;3.25;100.00
64711;BME280;51139;45.626;6.850;2023-11-21T11:36:52;81273.81;;;3.81;100.00
64711;BME280;51139;45.626;6.850;2023-11-21T11:39:40;81285.75;;;3.67;100.00
64711;BME280;51139;45.626;6.850;2023-11-21T11:42:15;81283.47;;;3.63;100.00
64711;BME280;51139;45.626;6.850;2023-11-21T11:47:16;81275.31;;;3.92;100.00
64711;BME280;51139;45.626;6.850;2023-11-21T11:49:57;81286.56;;;3.77;100.00
64711;BME280;51139;45.626;6.850;2023-11-21T11:52:35;81287.38;;;3.39;100.00
64711;BME280;51139;45.626;6.850;2023-11-21T11:55:05;81278.66;;;3.92;100.00
64711;BME280;51139;45.626;6.850;2023-11-21T11:57:31;81269.47;;;4.17;100.00
64711;BME280;51139;45.626;6.850;2023-11-21T12:00:15;81275.03;;;3.80;100.00
64711;BME280;51139;45.626;6.850;2023-11-21T12:02:49;81279.50;;;3.54;100.00
64711;BME280;51139;45.626;6.850;2023-11-21T12:05:19;81270.59;;;3.49;100.00
64711;BME280;51139;45.626;6.850;2023-11-21T12:07:46;81273.38;;;3.52;100.00
